Time;durP1;ratioP1;P1;durP2;ratioP2;P2;SDS_P1;SDS_P2;PMS_P1;PMS_P2;Temp;Humidity;BMP_temperature;BMP_pressure;BME280_temperature;BME280_humidity;BME280_pressure;Samples;Min_cycle;Max_cycle;Signal;HPM_P1;HPM_P2
2023/01/19 00:03:14;;;;;;;9.77;6.63;;;-0.10;99.90;;;;;;10356999;28;20222;-71
2023/01/19 00:08:16;;;;;;;11.20;6.80;;;0.00;99.90;;;;;;10359187;28;20216;-72
2023/01/19 00:13:16;;;;;;;12.30;7.20;;;-0.10;99.90;;;;;;10356095;28;20271;-72
2023/01/19 00:18:17;;;;;;;10.60;7.10;;;0.00;99.90;;;;;;10354249;28;20221;-71
2023/01/19 00:23:19;;;;;;;10.00;6.33;;;0.00;99.90;;;;;;10355115;28;20241;-72
2023/01/19 00:28:19;;;;;;;10.53;7.47;;;0.00;99.90;;;;;;10352888;28;20313;-69
2023/01/19 00:33:20;;;;;;;10.97;6.77;;;-0.10;99.90;;;;;;10349382;28;20725;-69
2023/01/19 00:38:20;;;;;;;12.13;7.17;;;-0.10;99.90;;;;;;10362599;28;20691;-72
2023/01/19 00:43:21;;;;;;;11.67;7.13;;;-0.10;99.90;;;;;;10351358;28;20802;-71
2023/01/19 00:48:23;;;;;;;9.93;7.40;;;-0.10;99.90;;;;;;10350095;28;20861;-73
2023/01/19 00:53:24;;;;;;;15.67;7.30;;;-0.10;99.90;;;;;;10350146;28;20316;-73
2023/01/19 00:58:24;;;;;;;12.53;7.57;;;0.00;99.90;;;;;;10350175;28;20756;-73
2023/01/19 01:03:26;;;;;;;11.10;7.50;;;0.00;99.90;;;;;;10346030;28;20583;-72
2023/01/19 01:08:27;;;;;;;12.40;7.20;;;0.00;99.90;;;;;;10350380;28;20218;-73
2023/01/19 01:13:27;;;;;;;13.63;7.10;;;0.00;99.90;;;;;;10353951;28;20225;-72
2023/01/19 01:18:28;;;;;;;12.37;7.47;;;-0.10;99.90;;;;;;10348626;28;20249;-72
2023/01/19 01:23:29;;;;;;;11.97;7.50;;;-0.10;99.90;;;;;;10348775;28;20320;-72
2023/01/19 01:28:30;;;;;;;11.07;7.37;;;-0.10;99.90;;;;;;10344032;28;20304;-72
2023/01/19 01:33:30;;;;;;;14.37;8.13;;;-0.10;99.90;;;;;;10357032;28;20263;-72
2023/01/19 01:38:34;;;;;;;15.17;7.40;;;0.00;99.90;;;;;;10339905;28;20311;-71
2023/01/19 01:43:46;;;;;;;12.03;7.50;;;0.00;99.90;;;;;;10353665;28;20240;-72
2023/01/19 01:49:07;;;;;;;12.93;8.10;;;0.10;99.90;;;;;;10348314;28;20221;-72
2023/01/19 01:54:21;;;;;;;13.03;7.70;;;0.10;99.90;;;;;;10354317;28;20300;-72
2023/01/19 01:59:33;;;;;;;11.80;7.43;;;0.00;99.90;;;;;;10355713;28;20226;-72
2023/01/19 02:04:34;;;;;;;14.83;7.77;;;0.00;99.90;;;;;;10354541;28;20602;-72
2023/01/19 02:14:55;;;;;;;14.33;8.23;;;0.00;99.90;;;;;;10342904;28;20218;-71
2023/01/19 02:19:56;;;;;;;12.57;8.17;;;0.00;99.90;;;;;;10353933;28;20233;-71
2023/01/19 02:24:57;;;;;;;13.87;8.60;;;0.00;99.90;;;;;;10350864;28;20770;-72
2023/01/19 02:30:02;;;;;;;13.20;7.97;;;0.00;99.90;;;;;;10347188;28;20240;-72
2023/01/19 02:35:03;;;;;;;14.90;9.03;;;-0.10;99.90;;;;;;10342895;28;20222;-72
2023/01/19 02:40:10;;;;;;;13.50;8.60;;;0.00;99.90;;;;;;10348057;28;20232;-70
2023/01/19 02:45:14;;;;;;;15.60;8.97;;;-0.10;99.90;;;;;;10352608;28;20292;-72
2023/01/19 02:51:02;;;;;;;14.57;9.03;;;0.00;99.90;;;;;;10348787;28;20186;-71
2023/01/19 02:56:38;;;;;;;13.30;8.93;;;-0.20;99.90;;;;;;10326756;28;20256;-71
2023/01/19 03:02:04;;;;;;;17.77;8.97;;;-0.20;99.90;;;;;;10345710;28;20257;-71
2023/01/19 03:07:13;;;;;;;15.17;9.07;;;-0.20;99.90;;;;;;10345324;28;20221;-71
2023/01/19 03:12:38;;;;;;;16.00;9.70;;;-0.20;99.90;;;;;;10335056;28;20754;-71
2023/01/19 03:17:41;;;;;;;16.60;9.53;;;-0.20;99.90;;;;;;10345232;28;20225;-71
2023/01/19 03:22:43;;;;;;;15.33;10.10;;;-0.20;99.90;;;;;;10326333;28;20233;-71
2023/01/19 03:27:45;;;;;;;13.67;9.73;;;0.00;99.90;;;;;;10342036;28;20675;-71
2023/01/19 03:32:53;;;;;;;17.77;10.30;;;0.10;99.90;;;;;;10342629;28;20220;-72
2023/01/19 03:37:59;;;;;;;16.13;9.77;;;0.20;99.90;;;;;;10355646;28;20213;-72
2023/01/19 03:43:01;;;;;;;17.43;10.07;;;0.30;99.90;;;;;;10349566;28;20229;-72
2023/01/19 03:48:02;;;;;;;14.67;9.83;;;0.40;99.90;;;;;;10331938;28;20213;-72
2023/01/19 03:53:12;;;;;;;13.73;9.77;;;0.40;99.90;;;;;;10343865;28;20219;-71
2023/01/19 03:58:12;;;;;;;18.10;11.30;;;0.40;99.90;;;;;;10355565;28;20220;-72
2023/01/19 04:03:15;;;;;;;18.97;10.43;;;0.40;99.90;;;;;;10354650;28;20235;-72
2023/01/19 04:08:16;;;;;;;16.23;10.57;;;0.40;99.90;;;;;;10328839;28;20689;-71
2023/01/19 04:13:16;;;;;;;19.73;12.03;;;0.30;99.90;;;;;;10351009;28;20222;-72
2023/01/19 04:18:17;;;;;;;20.53;12.30;;;0.20;99.90;;;;;;10334268;28;20229;-72
2023/01/19 04:23:17;;;;;;;18.47;12.03;;;0.10;99.90;;;;;;10342932;28;20257;-71
2023/01/19 04:28:18;;;;;;;20.33;11.40;;;0.10;99.90;;;;;;10335777;28;20229;-72
2023/01/19 04:33:19;;;;;;;20.00;11.90;;;0.20;99.90;;;;;;10342571;28;20217;-71
2023/01/19 04:38:19;;;;;;;15.00;11.37;;;0.40;99.90;;;;;;10358195;28;20225;-72
2023/01/19 04:43:21;;;;;;;18.27;11.57;;;0.50;99.90;;;;;;10349680;28;20327;-71
2023/01/19 04:48:22;;;;;;;16.77;11.33;;;0.60;99.90;;;;;;10353221;28;20317;-73
2023/01/19 04:53:23;;;;;;;17.07;11.27;;;0.80;99.90;;;;;;10357721;28;20213;-71
2023/01/19 04:58:24;;;;;;;17.53;11.97;;;0.90;99.90;;;;;;10357722;28;20944;-72
2023/01/19 05:03:24;;;;;;;17.73;11.63;;;1.00;99.90;;;;;;10333445;28;20240;-73
2023/01/19 05:08:25;;;;;;;18.40;11.20;;;1.10;99.90;;;;;;10345315;28;20213;-71
2023/01/19 05:13:28;;;;;;;18.03;11.10;;;1.20;99.90;;;;;;10347721;28;20221;-73
2023/01/19 05:18:34;;;;;;;16.73;11.07;;;1.20;99.90;;;;;;10341314;28;20237;-71
2023/01/19 05:23:35;;;;;;;16.13;10.77;;;1.30;99.90;;;;;;10355843;28;20230;-70
2023/01/19 05:28:36;;;;;;;14.57;10.37;;;1.30;99.90;;;;;;10339178;28;20226;-71
2023/01/19 05:33:37;;;;;;;15.50;10.57;;;1.20;99.90;;;;;;10357745;28;20218;-72
2023/01/19 05:38:37;;;;;;;17.07;10.40;;;1.20;99.90;;;;;;10356798;28;20707;-72
2023/01/19 05:43:38;;;;;;;14.40;10.53;;;1.20;99.90;;;;;;10354479;28;20237;-72
2023/01/19 05:48:41;;;;;;;15.33;10.77;;;1.10;99.90;;;;;;10356530;28;20217;-71
2023/01/19 05:53:42;;;;;;;17.17;11.33;;;1.20;99.90;;;;;;10358023;28;20239;-72
2023/01/19 05:58:42;;;;;;;17.67;12.37;;;1.20;99.90;;;;;;10337437;28;20224;-70
2023/01/19 06:03:43;;;;;;;18.60;12.33;;;1.30;99.90;;;;;;10344663;28;20408;-70
2023/01/19 06:08:44;;;;;;;18.73;12.53;;;1.30;99.90;;;;;;10346961;28;20256;-72
2023/01/19 06:13:46;;;;;;;16.70;11.40;;;1.30;99.90;;;;;;10334914;28;20214;-73
2023/01/19 06:18:46;;;;;;;15.53;10.70;;;1.40;99.90;;;;;;10351894;28;20229;-72
2023/01/19 06:23:47;;;;;;;15.20;10.37;;;1.40;99.90;;;;;;10353803;28;20237;-75
2023/01/19 06:28:50;;;;;;;20.90;11.97;;;1.40;99.90;;;;;;10336815;28;20218;-73
2023/01/19 06:33:50;;;;;;;16.30;10.87;;;1.40;99.90;;;;;;10352422;28;20764;-68
2023/01/19 06:38:54;;;;;;;19.40;10.87;;;1.50;99.90;;;;;;10345139;28;20312;-68
2023/01/19 06:43:54;;;;;;;13.87;9.80;;;1.50;99.90;;;;;;10350794;28;20232;-67
2023/01/19 06:49:02;;;;;;;14.07;10.20;;;1.60;99.90;;;;;;10345364;28;20221;-75
2023/01/19 06:54:03;;;;;;;18.30;10.30;;;1.60;99.90;;;;;;10323178;28;20218;-70
2023/01/19 06:59:04;;;;;;;15.83;11.47;;;1.60;99.90;;;;;;10331927;28;20222;-68
2023/01/19 07:04:04;;;;;;;17.10;10.70;;;1.60;99.90;;;;;;10337358;28;20269;-67
2023/01/19 07:09:09;;;;;;;15.87;11.23;;;1.60;99.90;;;;;;10340121;28;20256;-67
2023/01/19 07:14:09;;;;;;;15.00;10.70;;;1.60;99.90;;;;;;10338162;28;20263;-67
2023/01/19 07:19:10;;;;;;;14.67;10.67;;;1.50;99.90;;;;;;10348249;28;20316;-67
2023/01/19 07:24:10;;;;;;;16.90;11.33;;;1.50;99.90;;;;;;10347066;28;20244;-69
2023/01/19 07:29:11;;;;;;;16.57;11.20;;;1.50;99.90;;;;;;10350114;28;20272;-68
2023/01/19 07:34:11;;;;;;;17.43;11.80;;;1.50;99.90;;;;;;10346150;28;20224;-68
2023/01/19 07:39:12;;;;;;;19.53;11.93;;;1.50;99.90;;;;;;10341287;28;20691;-74
2023/01/19 07:44:13;;;;;;;16.73;12.17;;;1.50;99.90;;;;;;10352927;28;20220;-75
2023/01/19 07:49:13;;;;;;;15.40;12.37;;;1.40;99.90;;;;;;10353138;28;20222;-73
2023/01/19 07:54:14;;;;;;;19.40;11.47;;;1.40;99.90;;;;;;10342811;28;20230;-73
2023/01/19 07:59:14;;;;;;;18.13;12.70;;;1.40;99.90;;;;;;10337784;28;20222;-74
2023/01/19 08:04:15;;;;;;;16.87;12.00;;;1.40;99.90;;;;;;10336521;28;20218;-75
2023/01/19 08:09:15;;;;;;;19.20;11.80;;;1.50;99.90;;;;;;10353851;28;20889;-73
2023/01/19 08:15:01;;;;;;;16.43;11.70;;;1.70;99.90;;;;;;10346415;28;20217;-75
2023/01/19 08:20:03;;;;;;;17.63;11.83;;;1.90;99.90;;;;;;10286765;28;20229;-74
2023/01/19 08:25:04;;;;;;;21.13;12.33;;;2.20;99.90;;;;;;10358755;28;20227;-73
2023/01/19 08:30:05;;;;;;;17.00;11.23;;;2.30;99.90;;;;;;10352667;28;20248;-72
2023/01/19 08:35:06;;;;;;;17.17;11.80;;;2.30;99.90;;;;;;10355263;28;20190;-74
2023/01/19 08:40:08;;;;;;;15.13;10.33;;;2.40;99.90;;;;;;10352611;28;20228;-75
2023/01/19 08:45:09;;;;;;;12.07;8.77;;;3.80;99.90;;;;;;10354372;28;20205;-74
2023/01/19 08:50:10;;;;;;;10.63;8.93;;;7.00;99.90;;;;;;10353820;28;20541;-74
2023/01/19 08:55:11;;;;;;;15.23;10.80;;;9.30;99.90;;;;;;10364144;28;20192;-75
2023/01/19 09:00:12;;;;;;;11.40;9.87;;;9.20;99.90;;;;;;10353698;28;20216;-75
2023/01/19 09:05:13;;;;;;;11.23;8.43;;;8.70;99.90;;;;;;10351036;28;20188;-75
2023/01/19 09:10:20;;;;;;;10.93;9.00;;;11.10;99.90;;;;;;10343876;28;20661;-73
2023/01/19 09:15:21;;;;;;;11.17;8.33;;;13.10;94.90;;;;;;10341847;28;20244;-74
2023/01/19 09:20:22;;;;;;;10.27;8.27;;;14.70;86.00;;;;;;10347443;28;20217;-75
2023/01/19 09:25:23;;;;;;;10.90;8.43;;;15.40;75.00;;;;;;10343682;28;20316;-75
2023/01/19 09:30:24;;;;;;;10.77;8.33;;;16.10;67.60;;;;;;10351481;28;20194;-74
2023/01/19 09:35:24;;;;;;;9.97;7.37;;;16.10;64.80;;;;;;10357057;28;20696;-74
2023/01/19 09:40:25;;;;;;;10.87;8.03;;;16.60;62.00;;;;;;10360213;28;20237;-74
2023/01/19 09:45:50;;;;;;;10.47;8.07;;;17.10;58.10;;;;;;10340559;28;20736;-75
2023/01/19 09:50:54;;;;;;;10.10;8.23;;;17.50;56.90;;;;;;10344479;28;20233;-75
2023/01/19 09:55:55;;;;;;;10.43;8.40;;;17.70;55.40;;;;;;10346409;28;20272;-74
2023/01/19 10:01:04;;;;;;;9.77;7.83;;;18.40;53.80;;;;;;10349677;28;20223;-75
2023/01/19 10:06:10;;;;;;;9.53;8.13;;;18.80;52.10;;;;;;10339407;28;20233;-75
2023/01/19 10:11:25;;;;;;;10.07;7.97;;;19.90;49.70;;;;;;10353274;28;20627;-75
2023/01/19 10:17:04;;;;;;;10.13;8.07;;;20.60;48.40;;;;;;10342840;28;20807;-75
2023/01/19 10:22:21;;;;;;;12.60;9.00;;;20.80;47.00;;;;;;10346888;28;20734;-74
2023/01/19 10:27:28;;;;;;;10.47;8.33;;;20.40;46.30;;;;;;10356342;28;20257;-74
2023/01/19 10:32:34;;;;;;;9.97;8.93;;;18.40;49.70;;;;;;10352275;28;20697;-75
2023/01/19 10:37:43;;;;;;;12.10;9.20;;;14.80;56.10;;;;;;10336852;28;20229;-75
2023/01/19 10:42:44;;;;;;;14.10;9.37;;;12.70;63.60;;;;;;10340233;28;20249;-75
2023/01/19 10:47:46;;;;;;;11.17;9.53;;;11.10;70.40;;;;;;10324358;28;20232;-74
2023/01/19 10:52:50;;;;;;;12.10;8.80;;;10.00;76.40;;;;;;10342492;28;20221;-74
2023/01/19 10:57:52;;;;;;;12.90;9.17;;;8.80;82.90;;;;;;10357391;28;20713;-74
2023/01/19 11:02:52;;;;;;;11.30;9.13;;;8.10;88.10;;;;;;10344750;28;20269;-74
2023/01/19 11:07:54;;;;;;;12.17;9.80;;;7.60;91.40;;;;;;10349885;28;20290;-74
2023/01/19 11:13:14;;;;;;;11.87;9.90;;;6.90;95.40;;;;;;10343197;28;20740;-75
2023/01/19 11:18:34;;;;;;;15.60;9.47;;;6.40;99.90;;;;;;10347868;28;20264;-74
2023/01/19 11:23:43;;;;;;;14.20;10.23;;;6.00;99.90;;;;;;10340625;28;20225;-73
2023/01/19 11:28:50;;;;;;;10.53;9.10;;;5.70;99.90;;;;;;10342971;28;20224;-75
2023/01/19 11:33:52;;;;;;;12.90;9.53;;;5.50;99.90;;;;;;10353884;28;20217;-75
2023/01/19 11:38:59;;;;;;;12.17;9.27;;;5.50;99.90;;;;;;10341991;28;20241;-75
2023/01/19 11:44:16;;;;;;;11.27;9.17;;;5.60;99.90;;;;;;10355019;28;20241;-74
2023/01/19 11:49:39;;;;;;;11.03;9.10;;;5.60;99.90;;;;;;10339226;28;20290;-74
2023/01/19 11:54:48;;;;;;;10.07;8.03;;;5.40;99.90;;;;;;10358586;28;20585;-75
2023/01/19 11:59:48;;;;;;;10.57;7.70;;;5.30;99.90;;;;;;10359379;28;20233;-71
2023/01/19 12:04:53;;;;;;;10.13;6.90;;;5.30;99.90;;;;;;10358412;28;20268;-72
2023/01/19 12:10:01;;;;;;;13.40;7.77;;;5.10;99.90;;;;;;10348744;28;20213;-72
2023/01/19 12:15:22;;;;;;;9.77;7.07;;;5.10;99.90;;;;;;10351908;28;20233;-73
2023/01/19 12:20:25;;;;;;;12.23;7.60;;;5.00;99.90;;;;;;10359102;28;20223;-75
2023/01/19 12:26:00;;;;;;;9.57;7.40;;;4.90;99.90;;;;;;10359795;28;20278;-74
2023/01/19 12:31:01;;;;;;;11.13;7.77;;;4.90;99.90;;;;;;10353560;28;20310;-75
2023/01/19 12:36:34;;;;;;;12.73;8.23;;;4.90;99.90;;;;;;10342134;28;20204;-73
2023/01/19 12:41:36;;;;;;;14.83;7.97;;;4.90;99.90;;;;;;10351157;28;20272;-72
2023/01/19 12:46:42;;;;;;;10.47;7.60;;;5.00;99.90;;;;;;10349576;28;20226;-72
2023/01/19 12:51:43;;;;;;;10.10;7.67;;;5.00;99.90;;;;;;10365438;28;20305;-72
2023/01/19 12:56:43;;;;;;;13.90;8.90;;;5.10;99.90;;;;;;10348697;28;20779;-72
2023/01/19 13:02:19;;;;;;;11.67;8.97;;;5.20;99.90;;;;;;10340602;28;20233;-73
2023/01/19 13:07:19;;;;;;;12.90;9.27;;;5.30;99.90;;;;;;10346666;28;20247;-73
2023/01/19 13:12:20;;;;;;;11.83;9.50;;;5.40;99.90;;;;;;10341994;28;20312;-73
2023/01/19 13:17:34;;;;;;;13.33;9.20;;;5.60;99.90;;;;;;10352729;28;20264;-74
2023/01/19 13:23:04;;;;;;;12.40;8.60;;;5.70;99.90;;;;;;10332706;28;20240;-73
2023/01/19 13:28:09;;;;;;;11.93;8.80;;;5.60;99.90;;;;;;10333150;28;20302;-74
2023/01/19 13:33:18;;;;;;;10.70;8.50;;;5.50;99.90;;;;;;10341771;28;20687;-71
2023/01/19 13:38:19;;;;;;;12.00;8.40;;;5.40;99.90;;;;;;10357503;28;20225;-73
2023/01/19 13:43:31;;;;;;;11.13;8.50;;;5.20;99.90;;;;;;10350184;28;20716;-72
2023/01/19 13:48:32;;;;;;;11.43;8.73;;;5.00;99.90;;;;;;10353721;28;20739;-72
2023/01/19 13:53:34;;;;;;;12.83;9.20;;;4.90;99.90;;;;;;10354201;28;20297;-73
2023/01/19 13:58:35;;;;;;;15.50;8.93;;;4.80;99.90;;;;;;10355479;28;20697;-72
2023/01/19 14:03:35;;;;;;;11.57;8.70;;;4.70;99.90;;;;;;10354373;28;20225;-73
2023/01/19 14:08:36;;;;;;;16.23;9.70;;;4.50;99.90;;;;;;10354192;28;20244;-73
2023/01/19 14:13:40;;;;;;;15.27;10.40;;;4.50;99.90;;;;;;10354375;28;20622;-73
2023/01/19 14:18:41;;;;;;;15.33;10.30;;;4.40;99.90;;;;;;10355191;28;20222;-72
2023/01/19 14:24:04;;;;;;;13.43;9.00;;;4.40;99.90;;;;;;10353912;28;20237;-72
2023/01/19 14:29:30;;;;;;;13.47;9.77;;;4.30;99.90;;;;;;10330882;28;20228;-72
2023/01/19 14:34:40;;;;;;;12.73;9.77;;;4.20;99.90;;;;;;10346018;28;20231;-73
2023/01/19 14:39:45;;;;;;;12.23;9.13;;;4.20;99.90;;;;;;10352716;28;20316;-72
2023/01/19 14:44:49;;;;;;;12.90;9.40;;;4.10;99.90;;;;;;10353153;28;20705;-73
2023/01/19 14:49:50;;;;;;;14.97;9.83;;;4.00;99.90;;;;;;10352237;28;20623;-72
2023/01/19 14:54:53;;;;;;;13.00;8.47;;;4.00;99.90;;;;;;10344090;28;20651;-72
2023/01/19 14:59:54;;;;;;;11.87;8.50;;;3.90;99.90;;;;;;10344480;28;20226;-73
2023/01/19 15:05:13;;;;;;;15.27;8.93;;;3.90;99.90;;;;;;10318459;28;20238;-72
2023/01/19 15:10:21;;;;;;;13.43;8.93;;;3.80;99.90;;;;;;10348775;28;20680;-72
2023/01/19 15:15:28;;;;;;;12.80;9.40;;;3.60;99.90;;;;;;10343380;28;20201;-73
2023/01/19 15:20:28;;;;;;;12.67;9.13;;;3.60;99.90;;;;;;10336654;28;20357;-73
2023/01/19 15:25:30;;;;;;;14.43;9.53;;;3.50;99.90;;;;;;10351054;28;21012;-73
2023/01/19 15:30:32;;;;;;;14.43;9.40;;;3.40;99.90;;;;;;10353202;28;20225;-74
2023/01/19 15:35:32;;;;;;;17.60;9.33;;;3.40;99.90;;;;;;10340903;28;20645;-73
2023/01/19 15:40:33;;;;;;;15.30;9.27;;;3.30;99.90;;;;;;10336077;28;20230;-73
2023/01/19 15:45:35;;;;;;;14.43;9.37;;;3.20;99.90;;;;;;10351859;28;20245;-73
2023/01/19 15:50:41;;;;;;;13.23;9.77;;;3.10;99.90;;;;;;10344443;28;20224;-73
2023/01/19 15:55:42;;;;;;;16.60;11.37;;;3.00;99.90;;;;;;10349847;28;20627;-73
2023/01/19 16:00:43;;;;;;;14.43;9.83;;;2.90;99.90;;;;;;10343643;28;20251;-73
2023/01/19 16:05:45;;;;;;;13.63;8.83;;;2.90;99.90;;;;;;10346829;28;20692;-73
2023/01/19 16:10:46;;;;;;;18.87;12.17;;;2.90;99.90;;;;;;10334231;28;20292;-73
2023/01/19 16:15:46;;;;;;;16.27;10.60;;;2.90;99.90;;;;;;10357017;28;20294;-72
2023/01/19 16:20:47;;;;;;;18.77;11.37;;;2.90;99.90;;;;;;10333289;28;20234;-74
2023/01/19 16:26:03;;;;;;;15.00;11.27;;;2.90;99.90;;;;;;10351176;28;20684;-73
2023/01/19 16:31:04;;;;;;;19.63;11.63;;;2.80;99.90;;;;;;10334103;28;20279;-72
2023/01/19 16:36:21;;;;;;;18.23;11.97;;;2.80;99.90;;;;;;10333525;28;20746;-72
2023/01/19 16:41:21;;;;;;;15.63;11.37;;;2.70;99.90;;;;;;10351141;28;20236;-72
2023/01/19 16:46:25;;;;;;;20.07;12.23;;;2.70;99.90;;;;;;10344378;28;20229;-72
2023/01/19 16:51:26;;;;;;;18.47;10.93;;;2.70;99.90;;;;;;10355053;28;20217;-73
2023/01/19 16:56:26;;;;;;;15.93;11.67;;;2.70;99.90;;;;;;10340938;28;20220;-72
2023/01/19 17:01:29;;;;;;;16.63;11.20;;;2.70;99.90;;;;;;10343196;28;20768;-72
2023/01/19 17:06:30;;;;;;;15.77;9.80;;;2.70;99.90;;;;;;10355842;28;20252;-73
2023/01/19 17:11:33;;;;;;;17.30;11.73;;;2.70;99.90;;;;;;10356282;28;20287;-72
2023/01/19 17:16:34;;;;;;;16.10;10.60;;;2.70;99.90;;;;;;10333902;28;20222;-73
2023/01/19 17:21:35;;;;;;;14.73;9.70;;;2.70;99.90;;;;;;10351374;28;20284;-72
2023/01/19 17:26:36;;;;;;;17.73;9.33;;;2.70;99.90;;;;;;10355564;28;20580;-75
2023/01/19 17:31:36;;;;;;;11.00;8.37;;;2.70;99.90;;;;;;10349617;28;20305;-73
2023/01/19 17:36:39;;;;;;;12.43;8.87;;;2.80;99.90;;;;;;10348597;28;20232;-72
2023/01/19 17:41:40;;;;;;;12.77;8.77;;;2.70;99.90;;;;;;10360437;28;20663;-72
2023/01/19 17:46:41;;;;;;;10.10;7.87;;;2.80;99.90;;;;;;10348410;28;20248;-72
2023/01/19 17:51:41;;;;;;;10.30;8.10;;;2.80;99.90;;;;;;10351616;28;20700;-74
2023/01/19 17:56:42;;;;;;;11.20;8.47;;;2.80;99.90;;;;;;10359190;28;20213;-72
2023/01/19 18:01:44;;;;;;;15.13;8.87;;;2.80;99.90;;;;;;10348925;28;20221;-76
2023/01/19 18:06:45;;;;;;;12.57;9.30;;;2.90;99.90;;;;;;10353136;28;20209;-74
2023/01/19 18:11:46;;;;;;;13.57;9.77;;;2.80;99.90;;;;;;10346146;28;20241;-72
2023/01/19 18:16:47;;;;;;;13.50;9.30;;;2.80;99.90;;;;;;10353482;28;20278;-69
2023/01/19 18:21:47;;;;;;;12.57;9.30;;;2.80;99.90;;;;;;10344574;28;20291;-71
2023/01/19 18:26:48;;;;;;;13.00;9.73;;;2.80;99.90;;;;;;10336820;28;20233;-70
2023/01/19 18:31:48;;;;;;;14.57;10.20;;;2.90;99.90;;;;;;10359672;28;20326;-72
2023/01/19 18:36:52;;;;;;;13.97;10.10;;;2.90;99.90;;;;;;10336283;28;20274;-71
2023/01/19 18:41:52;;;;;;;13.00;9.43;;;2.90;99.90;;;;;;10351633;28;20232;-70
2023/01/19 18:46:55;;;;;;;11.83;9.30;;;2.90;99.90;;;;;;10328892;28;20225;-69
2023/01/19 18:51:56;;;;;;;15.53;9.93;;;3.00;99.90;;;;;;10350862;28;20252;-69
2023/01/19 18:56:56;;;;;;;15.60;10.10;;;2.90;99.90;;;;;;10352955;28;20259;-69
2023/01/19 19:02:00;;;;;;;14.93;11.17;;;2.80;99.90;;;;;;10344521;28;20684;-69
2023/01/19 19:07:03;;;;;;;12.43;9.97;;;2.80;99.90;;;;;;10343489;28;20258;-69
2023/01/19 19:12:04;;;;;;;11.30;9.17;;;2.80;99.90;;;;;;10346609;28;20312;-69
2023/01/19 19:17:04;;;;;;;13.10;8.90;;;2.80;99.90;;;;;;10349064;28;20225;-69
2023/01/19 19:22:05;;;;;;;11.67;9.00;;;2.70;99.90;;;;;;10344024;28;20228;-70
2023/01/19 19:27:06;;;;;;;13.60;9.03;;;2.70;99.90;;;;;;10348093;28;20229;-68
2023/01/19 19:32:06;;;;;;;12.83;8.73;;;2.70;99.90;;;;;;10321624;28;20700;-69
2023/01/19 19:37:07;;;;;;;12.97;9.17;;;2.70;99.90;;;;;;10348389;28;20225;-69
2023/01/19 19:42:07;;;;;;;13.73;9.53;;;2.70;99.90;;;;;;10349022;28;20242;-69
2023/01/19 19:47:08;;;;;;;15.23;10.47;;;2.60;99.90;;;;;;10345516;28;20770;-69
2023/01/19 19:52:08;;;;;;;11.90;9.20;;;2.70;99.90;;;;;;10347668;28;20245;-69
2023/01/19 19:57:12;;;;;;;12.10;9.03;;;2.70;99.90;;;;;;10347862;28;20214;-71
2023/01/19 20:02:13;;;;;;;13.27;9.03;;;2.70;99.90;;;;;;10357827;28;20217;-69
2023/01/19 20:07:13;;;;;;;12.50;10.03;;;2.70;99.90;;;;;;10360327;28;20250;-68
2023/01/19 20:12:15;;;;;;;12.60;9.60;;;2.70;99.90;;;;;;10344619;28;20217;-69
2023/01/19 20:17:15;;;;;;;14.70;9.57;;;2.70;99.90;;;;;;10357373;28;20304;-70
2023/01/19 20:22:16;;;;;;;15.27;9.87;;;2.70;99.90;;;;;;10352030;28;20233;-70
2023/01/19 20:27:17;;;;;;;14.50;10.10;;;2.70;99.90;;;;;;10354305;28;20226;-71
2023/01/19 20:32:17;;;;;;;20.47;14.50;;;2.60;99.90;;;;;;10355682;28;20221;-72
2023/01/19 20:37:18;;;;;;;14.37;10.27;;;2.60;99.90;;;;;;10354997;28;20221;-72
2023/01/19 20:42:18;;;;;;;15.23;9.87;;;2.70;99.90;;;;;;10355311;28;20605;-72
2023/01/19 20:47:19;;;;;;;15.33;9.83;;;2.70;99.90;;;;;;10356059;28;20275;-72
2023/01/19 20:52:21;;;;;;;13.60;9.70;;;2.60;99.90;;;;;;10352752;28;20600;-72
2023/01/19 20:57:25;;;;;;;14.87;9.30;;;2.60;99.90;;;;;;10341279;28;20288;-71
2023/01/19 21:02:25;;;;;;;13.43;9.40;;;2.60;99.90;;;;;;10363093;28;20229;-72
2023/01/19 21:07:26;;;;;;;16.43;9.40;;;2.60;99.90;;;;;;10365658;28;20251;-71
2023/01/19 21:12:26;;;;;;;13.47;8.90;;;2.50;99.90;;;;;;10341677;28;20316;-72
2023/01/19 21:17:27;;;;;;;12.97;8.60;;;2.50;99.90;;;;;;10365291;28;20740;-72
2023/01/19 21:22:27;;;;;;;13.53;8.73;;;2.50;99.90;;;;;;10355075;28;20320;-72
2023/01/19 21:27:28;;;;;;;13.53;9.37;;;2.50;99.90;;;;;;10356090;28;20232;-73
2023/01/19 21:32:29;;;;;;;15.00;9.03;;;2.40;99.90;;;;;;10350826;28;20352;-69
2023/01/19 21:37:30;;;;;;;13.40;9.30;;;2.40;99.90;;;;;;10348404;28;20647;-68
2023/01/19 21:42:30;;;;;;;13.33;9.57;;;2.40;99.90;;;;;;10357310;28;20555;-74
2023/01/19 21:47:35;;;;;;;12.10;8.97;;;2.40;99.90;;;;;;10338060;28;20329;-72
2023/01/19 21:52:36;;;;;;;12.80;8.90;;;2.30;99.90;;;;;;10337729;28;20229;-71
2023/01/19 21:57:36;;;;;;;14.47;9.07;;;2.30;99.90;;;;;;10351026;28;20225;-70
2023/01/19 22:02:37;;;;;;;15.50;8.93;;;2.30;99.90;;;;;;10340111;28;20238;-70
2023/01/19 22:07:37;;;;;;;13.37;9.50;;;2.20;99.90;;;;;;10358661;28;20320;-70
2023/01/19 22:12:39;;;;;;;14.87;9.60;;;2.20;99.90;;;;;;10360384;28;20727;-70
2023/01/19 22:17:39;;;;;;;13.10;9.60;;;2.20;99.90;;;;;;10355349;28;20367;-69
2023/01/19 22:22:40;;;;;;;14.80;8.77;;;2.10;99.90;;;;;;10347097;28;20646;-67
2023/01/19 22:27:40;;;;;;;11.63;9.43;;;2.10;99.90;;;;;;10351654;28;20235;-67
2023/01/19 22:32:41;;;;;;;12.00;9.63;;;2.10;99.90;;;;;;10352646;28;20729;-70
2023/01/19 22:37:42;;;;;;;13.57;9.80;;;2.10;99.90;;;;;;10345499;28;21015;-69
2023/01/19 22:42:48;;;;;;;13.53;9.87;;;2.00;99.90;;;;;;10345184;28;20236;-71
2023/01/19 22:47:49;;;;;;;14.33;9.90;;;2.00;99.90;;;;;;10354225;28;20225;-70
2023/01/19 22:52:54;;;;;;;12.37;9.40;;;1.90;99.90;;;;;;10346232;28;20237;-71
2023/01/19 22:57:54;;;;;;;13.27;8.93;;;1.80;99.90;;;;;;10360838;28;20231;-71
2023/01/19 23:02:58;;;;;;;13.57;9.30;;;1.70;99.90;;;;;;10345270;28;20238;-69
2023/01/19 23:07:58;;;;;;;12.17;8.77;;;1.60;99.90;;;;;;10351649;28;20320;-69
2023/01/19 23:12:59;;;;;;;12.93;8.40;;;1.60;99.90;;;;;;10345427;28;20304;-68
2023/01/19 23:17:59;;;;;;;13.27;8.90;;;1.50;99.90;;;;;;10352061;28;20246;-70
2023/01/19 23:23:00;;;;;;;14.47;10.07;;;1.30;99.90;;;;;;10350644;28;20236;-70
2023/01/19 23:28:00;;;;;;;13.13;9.70;;;1.20;99.90;;;;;;10353831;28;20245;-70
2023/01/19 23:33:01;;;;;;;14.70;9.67;;;1.20;99.90;;;;;;10326774;28;20232;-71
2023/01/19 23:38:01;;;;;;;14.03;9.70;;;1.20;99.90;;;;;;10345782;28;20284;-69
2023/01/19 23:43:02;;;;;;;16.53;10.73;;;1.10;99.90;;;;;;10350797;28;20248;-70
2023/01/19 23:48:06;;;;;;;16.60;10.53;;;1.10;99.90;;;;;;10352415;28;20227;-68
2023/01/19 23:53:06;;;;;;;16.00;10.40;;;1.10;99.90;;;;;;10352200;28;20910;-69
2023/01/19 23:58:07;;;;;;;15.20;11.30;;;1.00;99.90;;;;;;10349342;28;20260;-69
